WetterOnline ( https://www.wetteronline.de )

Wetter aktuell Hanau

Aktuelles Wetter: Offenbach (119m)

6-stündlich | Neueste Meldungen
Ortszeit Temperatur Wetter
Mi, 17.07. 20:00 24.1° C fast wolkenlos
Mi, 17.07. 14:00 23.0° C leicht bewölkt
Mi, 17.07. 8:00 14.4° C wolkig
Mi, 17.07. 2:00 14.6° C wolkig
Di, 16.07. 20:00 23.0° C wolkig
Di, 16.07. 14:00 21.5° C leicht bewölkt
Di, 16.07. 8:00 13.6° C wolkenlos
Di, 16.07. 2:00 11.5° C fast wolkenlos
Ortszeit Temperatur Wetter
Do, 18.07. 1:00 15.4° C leicht bewölkt
Do, 18.07. 0:50 15.4° C leicht bewölkt
Do, 18.07. 0:40 15.6° C wolkig
Do, 18.07. 0:30 16.0° C fast wolkenlos
Do, 18.07. 0:20 16.0° C fast wolkenlos
Do, 18.07. 0:10 16.1° C fast wolkenlos
Do, 18.07. 0:00 16.4° C wolkenlos
Mi, 17.07. 23:30 17.0° C leicht bewölkt
Mi, 17.07. 23:00 17.8° C fast wolkenlos
Mi, 17.07. 22:30 18.7° C wolkenlos
Mi, 17.07. 22:00 19.7° C wolkenlos
Ortszeit Relative Feuchte Sichtweite
Mi, 17.07. 20:00 42% 40 km
Mi, 17.07. 14:00 48% 30 km
Mi, 17.07. 8:00 81% 18 km
Mi, 17.07. 2:00 83% 30 km
Di, 16.07. 20:00 45% 40 km
Di, 16.07. 14:00 48% 45 km
Di, 16.07. 8:00 78% 17 km
Di, 16.07. 2:00 85% 26 km
Ortszeit Relative Feuchte Sichtweite
Do, 18.07. 1:00 79% 50 km
Do, 18.07. 0:50 79% -
Do, 18.07. 0:40 78% -
Do, 18.07. 0:30 76% 50 km
Do, 18.07. 0:20 76% -
Do, 18.07. 0:10 76% -
Do, 18.07. 0:00 74% 50 km
Mi, 17.07. 23:30 72% 45 km
Mi, 17.07. 23:00 69% 55 km
Mi, 17.07. 22:30 66% 45 km
Mi, 17.07. 22:00 62% 40 km
Ortszeit Niederschlagsmenge Niederschlagsart
Mi, 17.07. 20:00 0.0 l/m2 in 12 Std. -
Mi, 17.07. 14:00 0.0 l/m2 in 6 Std. -
Mi, 17.07. 8:00 0.0 l/m2 in 12 Std. -
Mi, 17.07. 2:00 0.0 l/m2 in 6 Std. -
Di, 16.07. 20:00 0.0 l/m2 in 12 Std. -
Di, 16.07. 14:00 0.0 l/m2 in 6 Std. -
Di, 16.07. 8:00 0.0 l/m2 in 12 Std. -
Di, 16.07. 2:00 0.0 l/m2 in 6 Std. -
Ortszeit Niederschlagsmenge Niederschlagsart
Do, 18.07. 1:00 0.0 l/m2 in 1 Std. -
Do, 18.07. 0:50 keine Meldung -
Do, 18.07. 0:40 keine Meldung -
Do, 18.07. 0:30 0.0 l/m2 in 1 Std. -
Do, 18.07. 0:20 keine Meldung -
Do, 18.07. 0:10 keine Meldung -
Do, 18.07. 0:00 0.0 l/m2 in 1 Std. -
Mi, 17.07. 23:30 0.0 l/m2 in 1 Std. -
Mi, 17.07. 23:00 0.0 l/m2 in 1 Std. -
Mi, 17.07. 22:30 0.0 l/m2 in 1 Std. -
Mi, 17.07. 22:00 0.0 l/m2 in 1 Std. -
Ortszeit Stärke Spitze Richtung
km/h Bft. km/h Grad Sektor
Mi, 17.07. 20:00 9 2 19 30° NO
Mi, 17.07. 14:00 9 2 22 340° N
Mi, 17.07. 8:00 7 2 14 10° N
Mi, 17.07. 2:00 9 2 22 360° N
Di, 16.07. 20:00 7 2 22 330° NW
Di, 16.07. 14:00 7 2 19 270° W
Di, 16.07. 8:00 0 0 7 - -
Di, 16.07. 2:00 4 1 29 30° NO
Ortszeit Stärke Spitze Richtung
km/h Bft. km/h Grad Sektor
Do, 18.07. 1:00 7 2 14 10° N
Do, 18.07. 0:50 7 2 - 10° N
Do, 18.07. 0:40 6 1 - 360° N
Do, 18.07. 0:30 7 2 14 360° N
Do, 18.07. 0:20 7 2 - 360° N
Do, 18.07. 0:10 7 2 - 360° N
Do, 18.07. 0:00 7 2 18 360° N
Mi, 17.07. 23:30 7 2 18 360° N
Mi, 17.07. 23:00 7 2 20 360° N
Mi, 17.07. 22:30 11 2 22 20° N
Mi, 17.07. 22:00 11 2 25 10° N
Ortszeit Untergrenze Bedeckung Gattung
total tief tief mittel hoch
Mi, 17.07. 20:00 1800 m 1/8 1/8 - - -
Mi, 17.07. 14:00 8400 m 7/8 0/8 - - -
Mi, 17.07. 8:00 6900 m 7/8 2/8 - - -
Mi, 17.07. 2:00 7800 m 7/8 0/8 - - -
Di, 16.07. 20:00 9000 m 8/8 0/8 - - -
Di, 16.07. 14:00 9000 m 7/8 0/8 - - -
Di, 16.07. 8:00 - 0/8 0/8 - - -
Di, 16.07. 2:00 1050 m 1/8 1/8 - - -
Ortszeit Bedeckungsgrad in Achtel und Wolkenuntergrenze
Do, 18.07. 1:00 4(10500m)
Do, 18.07. 0:50 4(10500m)
Do, 18.07. 0:40 7(10500m)
Do, 18.07. 0:30 1(9000m)
Do, 18.07. 0:20 1(9000m) 2(10500m)
Do, 18.07. 0:10 1(9000m)
Do, 18.07. 0:00 keine Wolken
Mi, 17.07. 23:30 1(8400m) 5(9000m) 6(10500m)
Mi, 17.07. 23:00 1(10500m) 3(9000m) 5(10500m)
Mi, 17.07. 22:30 keine Wolken
Mi, 17.07. 22:00 keine Wolken
Ortszeit Luftdruck NN (hPa) Tendenz (hPa in 3 Std.)
Mi, 17.07. 20:00 1012 - 0,8
Mi, 17.07. 14:00 1014 - 0,9
Mi, 17.07. 8:00 1016 - 0,2
Mi, 17.07. 2:00 1017 + 0,3
Di, 16.07. 20:00 1016 - 0,7
Di, 16.07. 14:00 1017 - 0,9
Di, 16.07. 8:00 1019 + 0,4
Di, 16.07. 2:00 1019 + 0,3
Ortszeit Luftdruck NN (hPa) Tendenz (hPa in 3 Std.)
Do, 18.07. 1:00 1014 + 0,5
Do, 18.07. 0:50 1014 keine Meldung
Do, 18.07. 0:40 1014 keine Meldung
Do, 18.07. 0:30 1014 + 0,7
Do, 18.07. 0:20 1014 keine Meldung
Do, 18.07. 0:10 1014 keine Meldung
Do, 18.07. 0:00 1013 + 0,8
Mi, 17.07. 23:30 1013 + 1,1
Mi, 17.07. 23:00 1013 + 1,0
Mi, 17.07. 22:30 1013 + 0,9
Mi, 17.07. 22:00 1013 + 0,6
Ortszeit Schneehöhe (cm)
Mi, 17.07. 20:00 -
Mi, 17.07. 14:00 -
Mi, 17.07. 8:00 -
Mi, 17.07. 2:00 -
Di, 16.07. 20:00 -
Di, 16.07. 14:00 -
Di, 16.07. 8:00 -
Di, 16.07. 2:00 -
Ortszeit Schneehöhe (cm)
Do, 18.07. 1:00 -
Do, 18.07. 0:50 -
Do, 18.07. 0:40 -
Do, 18.07. 0:30 -
Do, 18.07. 0:20 -
Do, 18.07. 0:10 -
Do, 18.07. 0:00 -
Mi, 17.07. 23:30 -
Mi, 17.07. 23:00 -
Mi, 17.07. 22:30 -
Mi, 17.07. 22:00 -
Link zu dieser Seite / Seite empfehlen

Das Wetter in ...